Thonotosassa, FL (33592)

6:48 PM EDT en Octubre 25, 2014 (GMT -0400)
Thonotosassa | Change Station
CLOSE
Current Station
Estación meteorológica personal
Location: Thonotosassa, FL
Altura: 53 ft
Estaciones meteorológicas cercanas

Alt 53 ft 28.06 °N, 82.32 °W | Updated 3 seconds ago

Despejado
Despejado
69.8 ° F
Sensación térmica 69.8 ° F
N
0.0
Viento Variable Viento desde Norte
Gusts 2.2 mph

Hoy
Alta -- | Baja -- ° F
--% Posibilidad de precipitaciones
Ayer
Alta -- | Baja -- ° F
Precip. -- pul
7:35 AM 6:50 PM
Creciente, 4% visible
Presión 29.97 pul
Visibilidad 10.0 Millas
Nubes Despejado
Punto de rocío 60 ° F
Humedad 72%
Precipitaciones 0.00 pul
Espesor de la nieve No disponible.
UV 0 de una escala de 12
Polen 6.00 de una escala de 12
Calidad del aire No disponible.
Flu Activity Local Activity
METAR KPCM 252235Z AUTO 02005KT 10SM CLR 24/09 A2997 RMK AO2

More Conditions Fewer Conditions

Presión 29.97 pul
Visibilidad 10.0 Millas
Nubes Despejado
Punto de rocío 60 ° F
Humedad 72%
Precipitaciones 0.00 pul
Espesor de la nieve No disponible.
UV 0 de una escala de 12
Polen 6.00 de una escala de 12
Calidad del aire No disponible.
Flu Activity Local Activity
METAR KPCM 252235Z AUTO 02005KT 10SM CLR 24/09 A2997 RMK AO2

More Conditions Fewer Conditions

10-Day Weather Forecast

Almanac

Astronomía

Oct. 25, 2014 Salida Puesta
Hora real 7:35 AM EDT 6:50 PM EDT
Crepúsculo civil 7:11 AM EDT 7:14 PM EDT
Crepúsculo náutico 6:44 AM EDT 7:41 PM EDT
Crepúsculo astronómico 6:16 AM EDT 8:09 PM EDT
Luna 9:07 AM EDT 8:19 PM EDT
Horas de luz 12h 02m
Horas de luz
11h 14m
Tomorrow will be 1m 32s shorter.
Creciente, 4% of the Moon is Illuminated
Hoy
Creciente
Oct 30
Cuarto creciente
Nov 6
Luna llena
Nov 14
Cuarto menguante
Nov 22
Nueva

Extremos de hoy

Máximos del estado Bajos del estado

Community

WunderPhotos

Upload Photos

1,765,016 ¡fotos cargadas!

Nearby

Grosos de nieve

Estación Profundido Altura
No tenemos constancia de nieve nueva.

Actividad de terremotos

Ciudad Distance Mag. Tiempo y dato
No hay informes recientes de la actividad sísmica.
Magnitud mínima muestra es 2,5.

Temperaturas de aguas costeras

Lugar Temperatura
St Petersburg, FL 80.1 ° F
Old Port Tampa, FL 75.9 ° F
McKay Bay Entrance, FL 79.0 ° F

Estaciones meteorológicas cercanas